sensor_id;sensor_type;location;lat;lon;timestamp;pressure;altitude;pressure_sealevel;temperature
30765;BMP180;494;48.744;10.106;2023-05-10T00:00:16;95097.00;;;16.50
30765;BMP180;494;48.744;10.106;2023-05-10T00:02:45;94865.00;;;16.50
30765;BMP180;494;48.744;10.106;2023-05-10T00:05:14;94729.00;;;16.60
30765;BMP180;494;48.744;10.106;2023-05-10T00:07:43;93983.00;;;14.10
30765;BMP180;494;48.744;10.106;2023-05-10T00:10:12;95066.00;;;15.60
30765;BMP180;494;48.744;10.106;2023-05-10T00:12:43;94874.00;;;16.30
30765;BMP180;494;48.744;10.106;2023-05-10T00:15:12;93896.00;;;16.20
30765;BMP180;494;48.744;10.106;2023-05-10T00:17:42;94817.00;;;16.30
30765;BMP180;494;48.744;10.106;2023-05-10T00:20:11;94330.00;;;14.80
30765;BMP180;494;48.744;10.106;2023-05-10T00:22:41;94890.00;;;16.30
30765;BMP180;494;48.744;10.106;2023-05-10T00:25:09;95028.00;;;16.30
30765;BMP180;494;48.744;10.106;2023-05-10T00:27:38;94848.00;;;16.40
30765;BMP180;494;48.744;10.106;2023-05-10T00:30:10;94614.00;;;16.40
30765;BMP180;494;48.744;10.106;2023-05-10T00:32:39;94867.00;;;15.40
30765;BMP180;494;48.744;10.106;2023-05-10T00:35:08;94410.00;;;15.80
30765;BMP180;494;48.744;10.106;2023-05-10T00:37:37;95024.00;;;16.20
30765;BMP180;494;48.744;10.106;2023-05-10T00:40:07;95028.00;;;16.30
30765;BMP180;494;48.744;10.106;2023-05-10T00:42:36;94900.00;;;16.30
30765;BMP180;494;48.744;10.106;2023-05-10T00:45:08;94568.00;;;16.20
30765;BMP180;494;48.744;10.106;2023-05-10T00:47:39;94247.00;;;16.40
30765;BMP180;494;48.744;10.106;2023-05-10T00:50:09;94754.00;;;16.30
30765;BMP180;494;48.744;10.106;2023-05-10T00:52:38;94772.00;;;16.20
30765;BMP180;494;48.744;10.106;2023-05-10T00:55:09;94832.00;;;16.10
30765;BMP180;494;48.744;10.106;2023-05-10T00:57:38;95030.00;;;16.20
30765;BMP180;494;48.744;10.106;2023-05-10T01:00:12;94637.00;;;16.00
30765;BMP180;494;48.744;10.106;2023-05-10T01:02:45;95027.00;;;15.20
30765;BMP180;494;48.744;10.106;2023-05-10T01:05:14;95109.00;;;15.80
30765;BMP180;494;48.744;10.106;2023-05-10T01:07:43;95027.00;;;15.80
30765;BMP180;494;48.744;10.106;2023-05-10T01:10:12;95124.00;;;15.30
30765;BMP180;494;48.744;10.106;2023-05-10T01:12:44;94715.00;;;16.00
30765;BMP180;494;48.744;10.106;2023-05-10T01:15:17;95027.00;;;15.80
30765;BMP180;494;48.744;10.106;2023-05-10T01:17:48;94563.00;;;15.60
30765;BMP180;494;48.744;10.106;2023-05-10T01:20:17;94186.00;;;15.90
30765;BMP180;494;48.744;10.106;2023-05-10T01:23:27;94534.00;;;14.60
30765;BMP180;494;48.744;10.106;2023-05-10T01:26:26;94723.00;;;15.80
30765;BMP180;494;48.744;10.106;2023-05-10T01:29:27;95032.00;;;15.80
30765;BMP180;494;48.744;10.106;2023-05-10T01:32:16;94717.00;;;15.40
30765;BMP180;494;48.744;10.106;2023-05-10T01:35:00;94930.00;;;15.60
30765;BMP180;494;48.744;10.106;2023-05-10T01:37:41;94930.00;;;15.60
30765;BMP180;494;48.744;10.106;2023-05-10T01:40:19;95037.00;;;15.20
30765;BMP180;494;48.744;10.106;2023-05-10T01:42:52;94786.00;;;15.40
30765;BMP180;494;48.744;10.106;2023-05-10T01:45:32;94908.00;;;15.00
30765;BMP180;494;48.744;10.106;2023-05-10T01:48:10;94733.00;;;14.80
30765;BMP180;494;48.744;10.106;2023-05-10T01:50:43;94588.00;;;13.00
30765;BMP180;494;48.744;10.106;2023-05-10T01:53:17;95094.00;;;13.90
30765;BMP180;494;48.744;10.106;2023-05-10T01:55:51;94632.00;;;14.10
30765;BMP180;494;48.744;10.106;2023-05-10T01:58:29;95163.00;;;14.00
30765;BMP180;494;48.744;10.106;2023-05-10T02:01:03;95068.00;;;14.00
30765;BMP180;494;48.744;10.106;2023-05-10T02:03:36;94969.00;;;13.80
30765;BMP180;494;48.744;10.106;2023-05-10T02:06:09;94471.00;;;14.00
30765;BMP180;494;48.744;10.106;2023-05-10T02:08:41;94695.00;;;13.90
30765;BMP180;494;48.744;10.106;2023-05-10T02:11:12;95089.00;;;13.80
30765;BMP180;494;48.744;10.106;2023-05-10T02:13:43;94976.00;;;13.60
30765;BMP180;494;48.744;10.106;2023-05-10T02:16:16;94934.00;;;13.90
30765;BMP180;494;48.744;10.106;2023-05-10T02:18:48;94852.00;;;14.00
30765;BMP180;494;48.744;10.106;2023-05-10T02:21:18;95132.00;;;13.90
30765;BMP180;494;48.744;10.106;2023-05-10T02:23:51;95081.00;;;13.70
30765;BMP180;494;48.744;10.106;2023-05-10T02:26:23;94923.00;;;13.70
30765;BMP180;494;48.744;10.106;2023-05-10T02:28:54;95187.00;;;12.10
30765;BMP180;494;48.744;10.106;2023-05-10T02:31:25;94830.00;;;14.00
30765;BMP180;494;48.744;10.106;2023-05-10T02:33:57;95092.00;;;14.10
30765;BMP180;494;48.744;10.106;2023-05-10T02:36:28;94931.00;;;13.40
30765;BMP180;494;48.744;10.106;2023-05-10T02:38:58;95049.00;;;13.80
30765;BMP180;494;48.744;10.106;2023-05-10T02:41:28;95100.00;;;13.40
30765;BMP180;494;48.744;10.106;2023-05-10T02:44:01;95098.00;;;13.50
30765;BMP180;494;48.744;10.106;2023-05-10T02:46:31;95114.00;;;13.40
30765;BMP180;494;48.744;10.106;2023-05-10T02:49:02;95099.00;;;13.10
30765;BMP180;494;48.744;10.106;2023-05-10T02:51:34;95136.00;;;13.40
30765;BMP180;494;48.744;10.106;2023-05-10T02:54:11;95178.00;;;13.40
30765;BMP180;494;48.744;10.106;2023-05-10T02:56:47;95044.00;;;13.50
30765;BMP180;494;48.744;10.106;2023-05-10T02:59:16;95118.00;;;13.60
30765;BMP180;494;48.744;10.106;2023-05-10T03:01:45;95112.00;;;13.60
30765;BMP180;494;48.744;10.106;2023-05-10T03:04:15;95014.00;;;13.70
30765;BMP180;494;48.744;10.106;2023-05-10T03:06:44;95112.00;;;13.70
30765;BMP180;494;48.744;10.106;2023-05-10T03:09:13;94843.00;;;13.40
30765;BMP180;494;48.744;10.106;2023-05-10T03:11:56;94965.00;;;12.70
30765;BMP180;494;48.744;10.106;2023-05-10T03:14:44;95065.00;;;13.50
30765;BMP180;494;48.744;10.106;2023-05-10T03:17:22;95116.00;;;13.50
30765;BMP180;494;48.744;10.106;2023-05-10T03:19:56;95020.00;;;13.00
30765;BMP180;494;48.744;10.106;2023-05-10T03:22:29;94930.00;;;13.70
30765;BMP180;494;48.744;10.106;2023-05-10T03:25:04;95065.00;;;13.50
30765;BMP180;494;48.744;10.106;2023-05-10T03:27:35;95122.00;;;13.50
30765;BMP180;494;48.744;10.106;2023-05-10T03:30:08;94858.00;;;13.40
30765;BMP180;494;48.744;10.106;2023-05-10T03:32:37;94978.00;;;13.50
30765;BMP180;494;48.744;10.106;2023-05-10T03:35:10;94984.00;;;13.70
30765;BMP180;494;48.744;10.106;2023-05-10T03:37:39;94498.00;;;13.60
30765;BMP180;494;48.744;10.106;2023-05-10T03:40:09;95128.00;;;13.80
30765;BMP180;494;48.744;10.106;2023-05-10T03:42:38;94672.00;;;13.70
30765;BMP180;494;48.744;10.106;2023-05-10T03:45:09;95122.00;;;13.70
30765;BMP180;494;48.744;10.106;2023-05-10T03:47:38;95132.00;;;13.60
30765;BMP180;494;48.744;10.106;2023-05-10T03:50:09;95057.00;;;13.60
30765;BMP180;494;48.744;10.106;2023-05-10T03:52:37;95016.00;;;13.70
30765;BMP180;494;48.744;10.106;2023-05-10T03:55:08;95140.00;;;13.50
30765;BMP180;494;48.744;10.106;2023-05-10T03:57:36;95141.00;;;13.40
30765;BMP180;494;48.744;10.106;2023-05-10T04:00:06;95000.00;;;13.30
30765;BMP180;494;48.744;10.106;2023-05-10T04:02:35;93904.00;;;13.40
30765;BMP180;494;48.744;10.106;2023-05-10T04:05:08;95151.00;;;13.60
30765;BMP180;494;48.744;10.106;2023-05-10T04:07:37;95187.00;;;13.10
30765;BMP180;494;48.744;10.106;2023-05-10T04:10:07;94911.00;;;13.10
30765;BMP180;494;48.744;10.106;2023-05-10T04:12:35;95152.00;;;13.20
30765;BMP180;494;48.744;10.106;2023-05-10T04:15:05;95193.00;;;13.30
30765;BMP180;494;48.744;10.106;2023-05-10T04:17:34;95054.00;;;13.40
30765;BMP180;494;48.744;10.106;2023-05-10T04:20:05;95046.00;;;13.70
30765;BMP180;494;48.744;10.106;2023-05-10T04:22:36;94702.00;;;13.80
30765;BMP180;494;48.744;10.106;2023-05-10T04:25:06;94941.00;;;13.70
30765;BMP180;494;48.744;10.106;2023-05-10T04:27:35;95151.00;;;13.60
30765;BMP180;494;48.744;10.106;2023-05-10T04:30:06;95013.00;;;13.90
30765;BMP180;494;48.744;10.106;2023-05-10T04:32:35;95156.00;;;14.00
30765;BMP180;494;48.744;10.106;2023-05-10T04:35:04;95188.00;;;14.00
30765;BMP180;494;48.744;10.106;2023-05-10T04:37:34;95001.00;;;13.70
30765;BMP180;494;48.744;10.106;2023-05-10T04:40:05;94900.00;;;14.10
30765;BMP180;494;48.744;10.106;2023-05-10T04:42:34;95038.00;;;14.00
30765;BMP180;494;48.744;10.106;2023-05-10T04:45:03;95160.00;;;14.10
30765;BMP180;494;48.744;10.106;2023-05-10T04:47:32;95157.00;;;14.20
30765;BMP180;494;48.744;10.106;2023-05-10T04:50:01;94964.00;;;14.30
30765;BMP180;494;48.744;10.106;2023-05-10T04:52:30;95137.00;;;14.20
30765;BMP180;494;48.744;10.106;2023-05-10T04:55:00;95007.00;;;14.20
30765;BMP180;494;48.744;10.106;2023-05-10T04:57:28;95073.00;;;14.40
30765;BMP180;494;48.744;10.106;2023-05-10T04:59:57;95169.00;;;14.40
30765;BMP180;494;48.744;10.106;2023-05-10T05:02:26;94990.00;;;14.50
30765;BMP180;494;48.744;10.106;2023-05-10T05:04:56;95014.00;;;14.50
30765;BMP180;494;48.744;10.106;2023-05-10T05:07:26;95225.00;;;14.60
30765;BMP180;494;48.744;10.106;2023-05-10T05:09:55;95065.00;;;14.30
30765;BMP180;494;48.744;10.106;2023-05-10T05:12:26;95147.00;;;14.60
30765;BMP180;494;48.744;10.106;2023-05-10T05:14:55;95269.00;;;14.30
30765;BMP180;494;48.744;10.106;2023-05-10T05:17:24;95409.00;;;10.80
30765;BMP180;494;48.744;10.106;2023-05-10T05:19:54;95015.00;;;14.80
30765;BMP180;494;48.744;10.106;2023-05-10T05:22:24;95216.00;;;14.40
30765;BMP180;494;48.744;10.106;2023-05-10T05:24:57;94197.00;;;14.00
30765;BMP180;494;48.744;10.106;2023-05-10T05:27:28;94852.00;;;13.70
30765;BMP180;494;48.744;10.106;2023-05-10T05:29:57;95020.00;;;15.10
30765;BMP180;494;48.744;10.106;2023-05-10T05:32:26;94102.00;;;15.10
30765;BMP180;494;48.744;10.106;2023-05-10T05:34:55;94779.00;;;14.90
30765;BMP180;494;48.744;10.106;2023-05-10T05:37:24;95027.00;;;14.20
30765;BMP180;494;48.744;10.106;2023-05-10T05:39:52;95054.00;;;15.00
30765;BMP180;494;48.744;10.106;2023-05-10T05:42:22;93993.00;;;13.70
30765;BMP180;494;48.744;10.106;2023-05-10T05:44:52;94779.00;;;15.20
30765;BMP180;494;48.744;10.106;2023-05-10T05:47:21;95057.00;;;15.20
30765;BMP180;494;48.744;10.106;2023-05-10T05:49:49;94930.00;;;15.20
30765;BMP180;494;48.744;10.106;2023-05-10T05:52:18;94921.00;;;15.40
30765;BMP180;494;48.744;10.106;2023-05-10T05:54:49;95244.00;;;14.40
30765;BMP180;494;48.744;10.106;2023-05-10T05:57:18;95214.00;;;15.10
30765;BMP180;494;48.744;10.106;2023-05-10T05:59:47;95086.00;;;13.10
30765;BMP180;494;48.744;10.106;2023-05-10T06:02:17;95215.00;;;15.40
30765;BMP180;494;48.744;10.106;2023-05-10T06:04:46;95193.00;;;15.50
30765;BMP180;494;48.744;10.106;2023-05-10T06:07:15;95280.00;;;15.70
30765;BMP180;494;48.744;10.106;2023-05-10T06:09:44;94130.00;;;15.50
30765;BMP180;494;48.744;10.106;2023-05-10T06:12:12;94771.00;;;15.60
30765;BMP180;494;48.744;10.106;2023-05-10T06:14:41;95194.00;;;15.50
30765;BMP180;494;48.744;10.106;2023-05-10T06:17:10;95195.00;;;15.50
30765;BMP180;494;48.744;10.106;2023-05-10T06:19:42;95204.00;;;15.70
30765;BMP180;494;48.744;10.106;2023-05-10T06:22:10;95071.00;;;15.40
30765;BMP180;494;48.744;10.106;2023-05-10T06:24:39;95198.00;;;15.60
30765;BMP180;494;48.744;10.106;2023-05-10T06:27:10;95248.00;;;15.70
30765;BMP180;494;48.744;10.106;2023-05-10T06:29:39;95208.00;;;15.10
30765;BMP180;494;48.744;10.106;2023-05-10T06:32:28;95288.00;;;15.50
30765;BMP180;494;48.744;10.106;2023-05-10T06:35:00;94863.00;;;15.60
30765;BMP180;494;48.744;10.106;2023-05-10T06:37:31;94853.00;;;15.20
30765;BMP180;494;48.744;10.106;2023-05-10T06:40:19;95230.00;;;16.00
30765;BMP180;494;48.744;10.106;2023-05-10T06:42:51;95017.00;;;15.90
30765;BMP180;494;48.744;10.106;2023-05-10T06:45:21;95000.00;;;16.20
30765;BMP180;494;48.744;10.106;2023-05-10T06:47:50;95235.00;;;16.10
30765;BMP180;494;48.744;10.106;2023-05-10T06:50:20;95050.00;;;16.00
30765;BMP180;494;48.744;10.106;2023-05-10T06:52:49;95255.00;;;15.80
30765;BMP180;494;48.744;10.106;2023-05-10T06:55:19;95122.00;;;15.80
30765;BMP180;494;48.744;10.106;2023-05-10T06:57:48;95247.00;;;15.50
30765;BMP180;494;48.744;10.106;2023-05-10T07:00:19;95095.00;;;15.70
30765;BMP180;494;48.744;10.106;2023-05-10T07:02:48;94951.00;;;15.70
30765;BMP180;494;48.744;10.106;2023-05-10T07:05:16;95260.00;;;15.90
30765;BMP180;494;48.744;10.106;2023-05-10T07:07:47;95256.00;;;16.20
30765;BMP180;494;48.744;10.106;2023-05-10T07:10:16;94997.00;;;16.20
30765;BMP180;494;48.744;10.106;2023-05-10T07:12:44;95090.00;;;16.30
30765;BMP180;494;48.744;10.106;2023-05-10T07:15:13;95219.00;;;16.30
30765;BMP180;494;48.744;10.106;2023-05-10T07:17:43;95045.00;;;14.40
30765;BMP180;494;48.744;10.106;2023-05-10T07:20:13;95085.00;;;16.50
30765;BMP180;494;48.744;10.106;2023-05-10T07:22:41;95135.00;;;16.90
30765;BMP180;494;48.744;10.106;2023-05-10T07:25:11;95255.00;;;16.90
30765;BMP180;494;48.744;10.106;2023-05-10T07:27:40;95176.00;;;16.80
30765;BMP180;494;48.744;10.106;2023-05-10T07:30:10;95217.00;;;16.90
30765;BMP180;494;48.744;10.106;2023-05-10T07:32:39;95119.00;;;17.10
30765;BMP180;494;48.744;10.106;2023-05-10T07:35:09;95112.00;;;16.80
30765;BMP180;494;48.744;10.106;2023-05-10T07:37:38;95261.00;;;16.70
30765;BMP180;494;48.744;10.106;2023-05-10T07:40:08;94972.00;;;16.80
30765;BMP180;494;48.744;10.106;2023-05-10T07:42:39;95259.00;;;17.10
30765;BMP180;494;48.744;10.106;2023-05-10T07:45:09;95263.00;;;16.80
30765;BMP180;494;48.744;10.106;2023-05-10T07:47:37;95266.00;;;16.90
30765;BMP180;494;48.744;10.106;2023-05-10T07:50:08;94762.00;;;17.00
30765;BMP180;494;48.744;10.106;2023-05-10T07:52:37;95274.00;;;16.90
30765;BMP180;494;48.744;10.106;2023-05-10T07:55:07;95292.00;;;17.10
30765;BMP180;494;48.744;10.106;2023-05-10T07:57:37;94981.00;;;17.20
30765;BMP180;494;48.744;10.106;2023-05-10T08:00:12;95166.00;;;17.10
30765;BMP180;494;48.744;10.106;2023-05-10T08:02:41;95291.00;;;16.90
30765;BMP180;494;48.744;10.106;2023-05-10T08:05:10;95271.00;;;17.00
30765;BMP180;494;48.744;10.106;2023-05-10T08:07:39;95157.00;;;16.80
30765;BMP180;494;48.744;10.106;2023-05-10T08:10:09;95233.00;;;17.20
30765;BMP180;494;48.744;10.106;2023-05-10T08:12:39;95189.00;;;16.90
30765;BMP180;494;48.744;10.106;2023-05-10T08:15:10;95269.00;;;16.90
30765;BMP180;494;48.744;10.106;2023-05-10T08:17:39;95121.00;;;16.90
30765;BMP180;494;48.744;10.106;2023-05-10T08:20:09;95150.00;;;17.10
30765;BMP180;494;48.744;10.106;2023-05-10T08:22:39;95195.00;;;17.10
30765;BMP180;494;48.744;10.106;2023-05-10T08:25:08;95226.00;;;17.40
30765;BMP180;494;48.744;10.106;2023-05-10T08:27:37;94658.00;;;17.60
30765;BMP180;494;48.744;10.106;2023-05-10T08:30:11;95276.00;;;17.60
30765;BMP180;494;48.744;10.106;2023-05-10T08:32:40;95110.00;;;17.70
30765;BMP180;494;48.744;10.106;2023-05-10T08:35:08;95285.00;;;17.70
30765;BMP180;494;48.744;10.106;2023-05-10T08:37:47;94993.00;;;17.10
30765;BMP180;494;48.744;10.106;2023-05-10T08:40:19;95059.00;;;17.60
30765;BMP180;494;48.744;10.106;2023-05-10T08:42:54;95168.00;;;17.70
30765;BMP180;494;48.744;10.106;2023-05-10T08:45:27;95291.00;;;17.80
30765;BMP180;494;48.744;10.106;2023-05-10T08:48:01;95285.00;;;17.80
30765;BMP180;494;48.744;10.106;2023-05-10T08:50:31;95108.00;;;18.00
30765;BMP180;494;48.744;10.106;2023-05-10T08:53:03;95290.00;;;18.50
30765;BMP180;494;48.744;10.106;2023-05-10T08:55:33;95329.00;;;18.60
30765;BMP180;494;48.744;10.106;2023-05-10T08:58:04;95312.00;;;18.70
30765;BMP180;494;48.744;10.106;2023-05-10T09:00:35;95063.00;;;18.70
30765;BMP180;494;48.744;10.106;2023-05-10T09:03:05;95241.00;;;18.80
30765;BMP180;494;48.744;10.106;2023-05-10T09:05:35;95188.00;;;18.80
30765;BMP180;494;48.744;10.106;2023-05-10T09:08:05;95208.00;;;18.60
30765;BMP180;494;48.744;10.106;2023-05-10T09:10:35;95116.00;;;18.60
30765;BMP180;494;48.744;10.106;2023-05-10T09:13:05;95186.00;;;18.60
30765;BMP180;494;48.744;10.106;2023-05-10T09:15:36;95181.00;;;18.80
30765;BMP180;494;48.744;10.106;2023-05-10T09:18:05;95137.00;;;19.10
30765;BMP180;494;48.744;10.106;2023-05-10T09:20:34;94967.00;;;19.20
30765;BMP180;494;48.744;10.106;2023-05-10T09:23:02;95143.00;;;18.70
30765;BMP180;494;48.744;10.106;2023-05-10T09:25:32;95305.00;;;19.00
30765;BMP180;494;48.744;10.106;2023-05-10T09:28:02;95308.00;;;19.00
30765;BMP180;494;48.744;10.106;2023-05-10T09:30:35;95307.00;;;19.10
30765;BMP180;494;48.744;10.106;2023-05-10T09:33:04;95187.00;;;19.40
30765;BMP180;494;48.744;10.106;2023-05-10T09:35:33;95191.00;;;19.30
30765;BMP180;494;48.744;10.106;2023-05-10T09:38:04;95310.00;;;19.30
30765;BMP180;494;48.744;10.106;2023-05-10T09:40:33;95113.00;;;19.30
30765;BMP180;494;48.744;10.106;2023-05-10T09:43:06;95336.00;;;19.70
30765;BMP180;494;48.744;10.106;2023-05-10T09:45:36;95299.00;;;19.70
30765;BMP180;494;48.744;10.106;2023-05-10T09:48:06;95204.00;;;18.50
30765;BMP180;494;48.744;10.106;2023-05-10T09:50:34;95313.00;;;19.60
30765;BMP180;494;48.744;10.106;2023-05-10T09:53:03;95305.00;;;20.10
30765;BMP180;494;48.744;10.106;2023-05-10T09:55:40;95162.00;;;19.90
30765;BMP180;494;48.744;10.106;2023-05-10T09:58:12;95306.00;;;19.60
30765;BMP180;494;48.744;10.106;2023-05-10T10:00:45;95250.00;;;19.80
30765;BMP180;494;48.744;10.106;2023-05-10T10:03:20;95304.00;;;19.60
30765;BMP180;494;48.744;10.106;2023-05-10T10:05:49;95124.00;;;19.00
30765;BMP180;494;48.744;10.106;2023-05-10T10:08:18;95162.00;;;19.20
30765;BMP180;494;48.744;10.106;2023-05-10T10:10:47;95222.00;;;19.00
30765;BMP180;494;48.744;10.106;2023-05-10T10:13:24;95310.00;;;18.60
30765;BMP180;494;48.744;10.106;2023-05-10T10:17:03;95318.00;;;18.10
30765;BMP180;494;48.744;10.106;2023-05-10T10:19:45;94912.00;;;17.70
30765;BMP180;494;48.744;10.106;2023-05-10T10:22:15;95351.00;;;17.40
30765;BMP180;494;48.744;10.106;2023-05-10T10:24:46;95373.00;;;16.90
30765;BMP180;494;48.744;10.106;2023-05-10T10:27:24;95331.00;;;16.90
30765;BMP180;494;48.744;10.106;2023-05-10T10:30:06;95314.00;;;16.90
30765;BMP180;494;48.744;10.106;2023-05-10T10:33:13;95331.00;;;16.90
30765;BMP180;494;48.744;10.106;2023-05-10T10:35:57;95332.00;;;16.50
30765;BMP180;494;48.744;10.106;2023-05-10T10:38:36;95335.00;;;16.20
30765;BMP180;494;48.744;10.106;2023-05-10T10:41:10;95337.00;;;16.30
30765;BMP180;494;48.744;10.106;2023-05-10T10:43:39;95336.00;;;16.40
30765;BMP180;494;48.744;10.106;2023-05-10T10:46:13;95335.00;;;15.80
30765;BMP180;494;48.744;10.106;2023-05-10T10:48:51;95080.00;;;16.70
30765;BMP180;494;48.744;10.106;2023-05-10T10:51:37;95331.00;;;17.10
30765;BMP180;494;48.744;10.106;2023-05-10T10:54:09;95329.00;;;17.40
30765;BMP180;494;48.744;10.106;2023-05-10T10:56:39;95196.00;;;17.60
30765;BMP180;494;48.744;10.106;2023-05-10T10:59:08;95328.00;;;17.70
30765;BMP180;494;48.744;10.106;2023-05-10T11:01:41;95322.00;;;18.40
30765;BMP180;494;48.744;10.106;2023-05-10T11:04:19;95337.00;;;18.70
30765;BMP180;494;48.744;10.106;2023-05-10T11:06:48;95324.00;;;18.90
30765;BMP180;494;48.744;10.106;2023-05-10T11:09:17;94871.00;;;18.90
30765;BMP180;494;48.744;10.106;2023-05-10T11:11:51;95324.00;;;18.90
30765;BMP180;494;48.744;10.106;2023-05-10T11:14:27;95317.00;;;19.20
30765;BMP180;494;48.744;10.106;2023-05-10T11:17:29;95306.00;;;19.30
30765;BMP180;494;48.744;10.106;2023-05-10T11:20:14;95329.00;;;19.40
30765;BMP180;494;48.744;10.106;2023-05-10T11:22:55;95154.00;;;19.50
30765;BMP180;494;48.744;10.106;2023-05-10T11:25:43;95379.00;;;19.50
30765;BMP180;494;48.744;10.106;2023-05-10T11:28:33;95319.00;;;19.70
30765;BMP180;494;48.744;10.106;2023-05-10T11:31:03;95232.00;;;19.60
30765;BMP180;494;48.744;10.106;2023-05-10T11:33:45;94857.00;;;19.30
30765;BMP180;494;48.744;10.106;2023-05-10T11:36:17;95231.00;;;18.90
30765;BMP180;494;48.744;10.106;2023-05-10T11:38:46;94984.00;;;19.30
30765;BMP180;494;48.744;10.106;2023-05-10T11:41:19;95367.00;;;19.00
30765;BMP180;494;48.744;10.106;2023-05-10T11:43:53;95212.00;;;19.20
30765;BMP180;494;48.744;10.106;2023-05-10T11:46:24;95188.00;;;18.70
30765;BMP180;494;48.744;10.106;2023-05-10T11:48:58;95334.00;;;18.60
30765;BMP180;494;48.744;10.106;2023-05-10T11:51:34;95127.00;;;18.00
30765;BMP180;494;48.744;10.106;2023-05-10T11:54:07;95341.00;;;18.10
30765;BMP180;494;48.744;10.106;2023-05-10T11:56:41;94844.00;;;17.30
30765;BMP180;494;48.744;10.106;2023-05-10T11:59:27;94974.00;;;18.20
30765;BMP180;494;48.744;10.106;2023-05-10T12:01:55;95145.00;;;18.10
30765;BMP180;494;48.744;10.106;2023-05-10T12:04:25;94968.00;;;18.30
30765;BMP180;494;48.744;10.106;2023-05-10T12:06:58;95209.00;;;18.10
30765;BMP180;494;48.744;10.106;2023-05-10T12:09:27;95251.00;;;16.80
30765;BMP180;494;48.744;10.106;2023-05-10T12:12:16;95346.00;;;17.90
30765;BMP180;494;48.744;10.106;2023-05-10T12:14:50;95170.00;;;18.00
30765;BMP180;494;48.744;10.106;2023-05-10T12:17:18;95175.00;;;17.60
30765;BMP180;494;48.744;10.106;2023-05-10T12:19:47;95349.00;;;17.20
30765;BMP180;494;48.744;10.106;2023-05-10T12:22:20;95278.00;;;17.60
30765;BMP180;494;48.744;10.106;2023-05-10T12:24:50;95353.00;;;17.40
30765;BMP180;494;48.744;10.106;2023-05-10T12:27:19;95145.00;;;17.10
30765;BMP180;494;48.744;10.106;2023-05-10T12:29:48;95369.00;;;17.30
30765;BMP180;494;48.744;10.106;2023-05-10T12:32:18;95365.00;;;17.10
30765;BMP180;494;48.744;10.106;2023-05-10T12:34:47;95370.00;;;17.30
30765;BMP180;494;48.744;10.106;2023-05-10T12:37:17;95258.00;;;17.40
30765;BMP180;494;48.744;10.106;2023-05-10T12:39:52;95366.00;;;17.50
30765;BMP180;494;48.744;10.106;2023-05-10T12:42:20;95251.00;;;16.80
30765;BMP180;494;48.744;10.106;2023-05-10T12:44:55;95292.00;;;17.30
30765;BMP180;494;48.744;10.106;2023-05-10T12:47:32;95471.00;;;17.00
30765;BMP180;494;48.744;10.106;2023-05-10T12:50:01;95373.00;;;17.60
30765;BMP180;494;48.744;10.106;2023-05-10T12:52:32;95082.00;;;15.90
30765;BMP180;494;48.744;10.106;2023-05-10T12:55:01;95313.00;;;15.60
30765;BMP180;494;48.744;10.106;2023-05-10T12:57:30;95311.00;;;17.70
30765;BMP180;494;48.744;10.106;2023-05-10T12:59:59;95187.00;;;17.80
30765;BMP180;494;48.744;10.106;2023-05-10T13:02:27;95219.00;;;18.00
30765;BMP180;494;48.744;10.106;2023-05-10T13:04:56;95235.00;;;17.90
30765;BMP180;494;48.744;10.106;2023-05-10T13:07:25;95389.00;;;17.90
30765;BMP180;494;48.744;10.106;2023-05-10T13:09:55;95392.00;;;17.70
30765;BMP180;494;48.744;10.106;2023-05-10T13:12:24;95207.00;;;16.60
30765;BMP180;494;48.744;10.106;2023-05-10T13:14:53;95322.00;;;17.70
30765;BMP180;494;48.744;10.106;2023-05-10T13:17:22;95333.00;;;17.10
30765;BMP180;494;48.744;10.106;2023-05-10T13:19:50;95098.00;;;16.90
30765;BMP180;494;48.744;10.106;2023-05-10T13:22:19;95298.00;;;16.40
30765;BMP180;494;48.744;10.106;2023-05-10T13:25:08;95232.00;;;16.30
30765;BMP180;494;48.744;10.106;2023-05-10T13:27:37;95414.00;;;15.80
30765;BMP180;494;48.744;10.106;2023-05-10T13:30:07;95197.00;;;15.30
30765;BMP180;494;48.744;10.106;2023-05-10T13:32:36;95414.00;;;15.50
30765;BMP180;494;48.744;10.106;2023-05-10T13:35:07;95323.00;;;15.30
30765;BMP180;494;48.744;10.106;2023-05-10T13:37:36;95323.00;;;15.20
30765;BMP180;494;48.744;10.106;2023-05-10T13:40:09;95503.00;;;14.90
30765;BMP180;494;48.744;10.106;2023-05-10T13:42:41;95186.00;;;15.00
30765;BMP180;494;48.744;10.106;2023-05-10T13:45:10;95149.00;;;15.00
30765;BMP180;494;48.744;10.106;2023-05-10T13:47:40;95429.00;;;15.00
30765;BMP180;494;48.744;10.106;2023-05-10T13:50:09;95386.00;;;15.10
30765;BMP180;494;48.744;10.106;2023-05-10T13:52:38;95210.00;;;14.70
30765;BMP180;494;48.744;10.106;2023-05-10T13:55:09;95270.00;;;14.70
30765;BMP180;494;48.744;10.106;2023-05-10T13:57:39;95447.00;;;14.70
30765;BMP180;494;48.744;10.106;2023-05-10T14:00:11;95322.00;;;15.70
30765;BMP180;494;48.744;10.106;2023-05-10T14:02:39;95314.00;;;15.60
30765;BMP180;494;48.744;10.106;2023-05-10T14:05:09;95364.00;;;15.80
30765;BMP180;494;48.744;10.106;2023-05-10T14:07:52;95351.00;;;13.50
30765;BMP180;494;48.744;10.106;2023-05-10T14:10:29;95402.00;;;15.80
30765;BMP180;494;48.744;10.106;2023-05-10T14:12:58;94955.00;;;15.60
30765;BMP180;494;48.744;10.106;2023-05-10T14:15:27;95023.00;;;15.80
30765;BMP180;494;48.744;10.106;2023-05-10T14:17:56;95391.00;;;16.10
30765;BMP180;494;48.744;10.106;2023-05-10T14:20:26;95213.00;;;16.20
30765;BMP180;494;48.744;10.106;2023-05-10T14:22:59;95212.00;;;16.30
30765;BMP180;494;48.744;10.106;2023-05-10T14:25:29;95263.00;;;16.40
30765;BMP180;494;48.744;10.106;2023-05-10T14:27:58;95304.00;;;16.50
30765;BMP180;494;48.744;10.106;2023-05-10T14:30:27;95192.00;;;16.60
30765;BMP180;494;48.744;10.106;2023-05-10T14:32:56;95348.00;;;15.30
30765;BMP180;494;48.744;10.106;2023-05-10T14:35:26;95384.00;;;16.10
30765;BMP180;494;48.744;10.106;2023-05-10T14:38:09;95277.00;;;16.60
30765;BMP180;494;48.744;10.106;2023-05-10T14:40:44;95239.00;;;16.60
30765;BMP180;494;48.744;10.106;2023-05-10T14:43:16;95388.00;;;16.80
30765;BMP180;494;48.744;10.106;2023-05-10T14:46:14;95374.00;;;16.80
30765;BMP180;494;48.744;10.106;2023-05-10T14:48:47;95235.00;;;16.90